createdAt,value
2022-10-13T00:00:42.654Z,16.20
2022-10-13T00:03:10.819Z,16.20
2022-10-13T00:05:42.767Z,16.20
2022-10-13T00:08:09.880Z,16.20
2022-10-13T00:10:38.619Z,16.20
2022-10-13T00:13:06.003Z,16.20
2022-10-13T00:15:32.870Z,16.20
2022-10-13T00:17:59.763Z,16.20
2022-10-13T00:20:26.571Z,16.20
2022-10-13T00:22:53.301Z,16.20
2022-10-13T00:25:20.084Z,16.20
2022-10-13T00:27:46.945Z,16.20
2022-10-13T00:30:13.771Z,16.20
2022-10-13T00:32:40.582Z,16.20
2022-10-13T00:35:07.611Z,16.20
2022-10-13T00:37:34.403Z,16.20
2022-10-13T00:40:01.147Z,16.20
2022-10-13T00:42:28.044Z,16.20
2022-10-13T00:45:19.699Z,16.20
2022-10-13T00:47:51.605Z,16.20
2022-10-13T00:50:23.551Z,16.20
2022-10-13T00:52:54.395Z,16.20
2022-10-13T00:55:25.227Z,16.20
2022-10-13T00:57:55.810Z,16.20
2022-10-13T01:00:23.812Z,16.20
2022-10-13T01:02:50.952Z,16.20
2022-10-13T01:05:19.466Z,16.20
2022-10-13T01:07:49.086Z,16.20
2022-10-13T01:10:24.776Z,16.20
2022-10-13T01:13:22.471Z,16.20
2022-10-13T01:16:06.140Z,16.20
2022-10-13T01:18:46.464Z,16.20
2022-10-13T01:21:26.408Z,16.20
2022-10-13T01:24:14.728Z,16.20
2022-10-13T01:27:18.756Z,16.20
2022-10-13T01:30:06.955Z,16.20
2022-10-13T01:32:43.941Z,16.20
2022-10-13T01:35:13.299Z,16.20
2022-10-13T01:37:46.037Z,16.20
2022-10-13T01:40:16.879Z,16.20
2022-10-13T01:42:51.118Z,16.20
2022-10-13T01:45:21.978Z,16.20
2022-10-13T01:47:52.728Z,16.20
2022-10-13T01:50:20.641Z,16.20
2022-10-13T01:52:48.207Z,16.20
2022-10-13T01:55:15.145Z,16.20
2022-10-13T01:57:45.040Z,16.20
2022-10-13T02:00:18.078Z,16.20
2022-10-13T02:02:57.266Z,16.20
2022-10-13T02:05:54.948Z,16.20
2022-10-13T02:08:34.119Z,16.20
2022-10-13T02:11:14.485Z,16.20
2022-10-13T02:13:54.315Z,16.20
2022-10-13T02:16:23.609Z,16.20
2022-10-13T02:18:51.233Z,16.20
2022-10-13T02:21:18.536Z,16.20
2022-10-13T02:23:45.876Z,16.20
2022-10-13T02:26:14.083Z,16.20
2022-10-13T02:28:41.027Z,16.20
2022-10-13T02:31:10.892Z,16.20
2022-10-13T02:33:37.614Z,16.20
2022-10-13T02:36:05.222Z,16.20
2022-10-13T02:38:31.969Z,16.20
2022-10-13T02:41:00.231Z,16.20
2022-10-13T02:43:29.398Z,16.20
2022-10-13T02:45:56.152Z,16.20
2022-10-13T02:48:23.235Z,16.20
2022-10-13T02:50:49.947Z,16.20
2022-10-13T02:53:16.697Z,16.20
2022-10-13T02:55:43.439Z,16.20
2022-10-13T02:58:10.160Z,16.20
2022-10-13T03:00:39.175Z,16.20
2022-10-13T03:03:06.618Z,16.20
2022-10-13T03:05:33.421Z,16.20
2022-10-13T03:08:00.117Z,16.20
2022-10-13T03:10:27.106Z,16.20
2022-10-13T03:12:55.645Z,16.20
2022-10-13T03:15:22.542Z,16.20
2022-10-13T03:17:49.376Z,16.20
2022-10-13T03:20:16.298Z,16.20
2022-10-13T03:22:46.075Z,16.20
2022-10-13T03:25:16.337Z,16.20
2022-10-13T03:27:43.049Z,16.20
2022-10-13T03:30:10.624Z,16.20
2022-10-13T03:32:37.433Z,16.20
2022-10-13T03:35:05.799Z,16.20
2022-10-13T03:37:32.523Z,16.20
2022-10-13T03:39:59.977Z,16.20
2022-10-13T03:42:26.739Z,16.20
2022-10-13T03:44:56.331Z,16.20
2022-10-13T03:47:23.766Z,16.20
2022-10-13T03:49:50.462Z,16.30
2022-10-13T03:52:17.498Z,16.20
2022-10-13T03:54:44.467Z,16.20
2022-10-13T03:57:11.192Z,16.20
2022-10-13T03:59:40.644Z,16.20
2022-10-13T04:02:07.763Z,16.20
2022-10-13T04:04:35.289Z,16.20
2022-10-13T04:07:02.135Z,16.20
2022-10-13T04:09:28.961Z,16.20
2022-10-13T04:11:55.682Z,16.20
2022-10-13T04:14:22.463Z,16.20
2022-10-13T04:16:49.176Z,16.20
2022-10-13T04:19:16.120Z,16.20
2022-10-13T04:21:43.813Z,16.20
2022-10-13T04:24:13.221Z,16.20
2022-10-13T04:26:40.537Z,16.20
2022-10-13T04:29:09.629Z,16.20
2022-10-13T04:31:37.048Z,16.20
2022-10-13T04:34:04.113Z,16.20
2022-10-13T04:36:30.900Z,16.20
2022-10-13T04:38:57.724Z,16.20
2022-10-13T04:41:25.826Z,16.20
2022-10-13T04:43:53.564Z,16.20
2022-10-13T04:46:23.302Z,16.20
2022-10-13T04:48:53.157Z,16.20
2022-10-13T04:51:23.330Z,16.20
2022-10-13T04:53:58.105Z,16.20
2022-10-13T04:56:25.849Z,16.20
2022-10-13T04:58:52.713Z,16.20
2022-10-13T05:01:22.641Z,16.20
2022-10-13T05:03:54.196Z,16.20
2022-10-13T05:06:24.033Z,16.20
2022-10-13T05:08:51.134Z,16.10
2022-10-13T05:11:20.453Z,16.00
2022-10-13T05:13:48.487Z,15.80
2022-10-13T05:16:17.611Z,15.60
2022-10-13T05:18:44.628Z,15.40
2022-10-13T05:21:14.300Z,15.30
2022-10-13T05:23:41.880Z,15.20
2022-10-13T05:26:11.738Z,15.20
2022-10-13T05:28:38.926Z,15.10
2022-10-13T05:31:25.109Z,15.10
2022-10-13T05:33:52.504Z,15.00
2022-10-13T05:36:24.137Z,15.00
2022-10-13T05:38:52.674Z,14.90
2022-10-13T05:41:20.309Z,14.90
2022-10-13T05:43:47.060Z,14.90
2022-10-13T05:46:14.362Z,14.80
2022-10-13T05:48:41.096Z,14.80
2022-10-13T05:51:21.177Z,14.90
2022-10-13T05:53:56.904Z,14.80
2022-10-13T05:56:30.056Z,14.80
2022-10-13T05:59:01.586Z,14.90
2022-10-13T06:01:32.775Z,14.90
2022-10-13T06:04:04.325Z,14.90
2022-10-13T06:06:31.800Z,14.90
2022-10-13T06:09:00.356Z,14.80
2022-10-13T06:11:30.065Z,14.80
2022-10-13T06:13:56.808Z,14.80
2022-10-13T06:16:23.534Z,14.80
2022-10-13T06:18:50.272Z,14.80
2022-10-13T06:21:17.388Z,14.80
2022-10-13T06:23:44.106Z,14.80
2022-10-13T06:26:10.857Z,14.80
2022-10-13T06:28:38.158Z,14.70
2022-10-13T06:31:07.168Z,14.70
2022-10-13T06:33:34.389Z,14.80
2022-10-13T06:36:05.982Z,14.80
2022-10-13T06:38:33.286Z,14.80
2022-10-13T06:41:04.922Z,14.80
2022-10-13T06:43:38.885Z,14.80
2022-10-13T06:46:07.415Z,14.80
2022-10-13T06:48:34.409Z,14.80
2022-10-13T06:51:02.943Z,14.80
2022-10-13T06:53:30.198Z,14.80
2022-10-13T06:55:59.126Z,14.80
2022-10-13T06:58:26.939Z,14.80
2022-10-13T07:00:54.429Z,14.80
2022-10-13T07:03:21.191Z,14.80
2022-10-13T07:05:48.036Z,14.80
2022-10-13T07:08:15.718Z,14.80
2022-10-13T07:10:42.905Z,14.90
2022-10-13T07:13:09.792Z,14.90
2022-10-13T07:15:40.552Z,14.90
2022-10-13T07:18:07.756Z,14.90
2022-10-13T07:20:34.975Z,14.90
2022-10-13T07:23:02.364Z,15.00
2022-10-13T07:25:29.447Z,15.00
2022-10-13T07:27:56.635Z,15.00
2022-10-13T07:30:23.339Z,15.00
2022-10-13T07:32:50.481Z,15.10
2022-10-13T07:35:17.327Z,15.10
2022-10-13T07:37:44.086Z,15.10
2022-10-13T07:40:11.329Z,15.10
2022-10-13T07:42:38.082Z,15.20
2022-10-13T07:45:05.339Z,15.20
2022-10-13T07:47:32.053Z,15.20
2022-10-13T07:49:58.758Z,15.20
2022-10-13T07:52:25.529Z,15.20
2022-10-13T07:54:52.735Z,15.20
2022-10-13T07:57:20.180Z,15.10
2022-10-13T07:59:46.971Z,15.10
2022-10-13T08:02:14.461Z,15.10
2022-10-13T08:04:44.091Z,15.10
2022-10-13T08:07:11.550Z,15.10
2022-10-13T08:09:38.337Z,15.10
2022-10-13T08:12:05.132Z,15.10
2022-10-13T08:14:31.966Z,15.10
2022-10-13T08:16:58.843Z,15.10
2022-10-13T08:19:26.592Z,15.10
2022-10-13T08:21:59.199Z,15.00
2022-10-13T08:24:27.695Z,15.10
2022-10-13T08:26:54.655Z,15.10
2022-10-13T08:29:22.957Z,15.10
2022-10-13T08:31:52.755Z,15.10
2022-10-13T08:34:20.269Z,15.10
2022-10-13T08:36:47.438Z,15.10
2022-10-13T08:39:14.359Z,15.20
2022-10-13T08:41:44.033Z,15.20
2022-10-13T08:47:30.348Z,15.20
2022-10-13T08:50:01.123Z,15.20
2022-10-13T08:52:43.444Z,15.20
2022-10-13T08:55:33.122Z,15.20
2022-10-13T08:58:01.864Z,15.30
2022-10-13T09:00:30.382Z,15.30
2022-10-13T09:03:15.753Z,15.30
2022-10-13T09:05:53.287Z,15.30
2022-10-13T09:08:25.138Z,15.30
2022-10-13T09:10:52.162Z,15.40
2022-10-13T09:13:20.343Z,15.40
2022-10-13T09:15:48.466Z,15.40
2022-10-13T09:18:15.232Z,15.40
2022-10-13T09:20:44.797Z,15.50
2022-10-13T09:23:14.355Z,15.50
2022-10-13T09:25:46.552Z,15.50
2022-10-13T09:28:32.562Z,15.50
2022-10-13T09:31:11.640Z,15.50
2022-10-13T09:33:40.891Z,15.50
2022-10-13T09:36:11.194Z,15.50
2022-10-13T09:38:39.698Z,15.50
2022-10-13T09:41:21.782Z,15.50
2022-10-13T09:43:48.472Z,15.50
2022-10-13T09:46:20.520Z,15.50
2022-10-13T09:49:03.881Z,15.50
2022-10-13T09:51:44.859Z,15.50
2022-10-13T09:54:36.957Z,15.50
2022-10-13T09:57:09.120Z,15.50
2022-10-13T09:59:41.144Z,15.50
2022-10-13T10:02:34.654Z,15.50
2022-10-13T10:05:18.485Z,15.50
2022-10-13T10:07:45.799Z,15.50
2022-10-13T10:10:37.076Z,15.50
2022-10-13T10:13:06.454Z,15.50
2022-10-13T10:16:05.008Z,15.60
2022-10-13T10:18:47.320Z,15.60
2022-10-13T10:21:34.557Z,15.60
2022-10-13T10:24:24.345Z,15.60
2022-10-13T10:27:14.793Z,15.60
2022-10-13T10:29:49.023Z,15.70
2022-10-13T10:32:40.858Z,15.70
2022-10-13T10:35:16.765Z,15.70
2022-10-13T10:38:06.270Z,15.70
2022-10-13T10:41:11.511Z,15.70
2022-10-13T10:43:41.153Z,15.80
2022-10-13T10:46:20.071Z,15.80
2022-10-13T10:48:50.258Z,15.80
2022-10-13T10:51:18.076Z,15.80
2022-10-13T10:53:57.808Z,15.80
2022-10-13T10:56:40.654Z,15.80
2022-10-13T10:59:41.574Z,15.80
2022-10-13T11:02:08.303Z,15.80
2022-10-13T11:04:40.796Z,15.80
2022-10-13T11:07:30.748Z,15.80
2022-10-13T11:09:57.467Z,15.80
2022-10-13T11:12:26.217Z,15.90
2022-10-13T11:15:16.043Z,15.90
2022-10-13T11:17:43.000Z,15.90
2022-10-13T11:20:21.552Z,16.00
2022-10-13T11:23:00.618Z,16.00
2022-10-13T11:25:49.287Z,16.00
2022-10-13T11:28:22.475Z,16.00
2022-10-13T11:31:33.543Z,16.00
2022-10-13T11:34:03.565Z,15.90
2022-10-13T11:36:31.633Z,16.00
2022-10-13T11:39:20.087Z,16.00
2022-10-13T11:42:02.486Z,15.90
2022-10-13T11:44:50.832Z,15.90
2022-10-13T11:47:55.488Z,15.90
2022-10-13T11:50:41.109Z,15.90
2022-10-13T11:53:24.332Z,15.90
2022-10-13T11:55:56.145Z,15.90
2022-10-13T11:58:25.505Z,15.90
2022-10-13T12:01:00.752Z,15.90
2022-10-13T12:03:58.162Z,15.80
2022-10-13T12:06:36.882Z,15.90
2022-10-13T12:09:24.362Z,15.90
2022-10-13T12:12:19.255Z,15.90
2022-10-13T12:14:52.624Z,15.90
2022-10-13T12:17:23.743Z,15.90
2022-10-13T12:19:51.521Z,15.90
2022-10-13T12:22:18.232Z,15.90
2022-10-13T12:25:00.871Z,15.90
2022-10-13T12:27:35.332Z,16.00
2022-10-13T12:30:19.515Z,16.00
2022-10-13T12:32:50.450Z,16.00
2022-10-13T12:35:28.124Z,16.00
2022-10-13T12:37:56.381Z,16.00
2022-10-13T12:40:24.451Z,16.10
2022-10-13T12:42:51.836Z,16.10
2022-10-13T12:45:24.521Z,16.10
2022-10-13T12:47:53.378Z,16.10
2022-10-13T12:50:23.798Z,16.10
2022-10-13T12:52:52.757Z,16.10
2022-10-13T12:55:21.735Z,16.20
2022-10-13T12:57:50.991Z,16.20
2022-10-13T13:00:21.039Z,16.20
2022-10-13T13:02:52.348Z,16.20
2022-10-13T13:05:32.884Z,16.30
2022-10-13T13:08:00.653Z,16.30
2022-10-13T13:10:27.911Z,16.20
2022-10-13T13:12:56.189Z,16.20
2022-10-13T13:15:25.546Z,16.20
2022-10-13T13:17:59.352Z,16.20
2022-10-13T13:20:29.854Z,16.30
2022-10-13T13:22:56.780Z,16.20
2022-10-13T13:25:24.510Z,16.20
2022-10-13T13:27:52.015Z,16.30
2022-10-13T13:30:23.145Z,16.20
2022-10-13T13:32:50.156Z,16.20
2022-10-13T13:35:17.856Z,16.20
2022-10-13T13:37:49.674Z,16.20
2022-10-13T13:40:22.182Z,16.20
2022-10-13T13:42:49.237Z,16.20
2022-10-13T13:45:18.195Z,16.30
2022-10-13T13:47:45.281Z,16.20
2022-10-13T13:50:24.426Z,16.20
2022-10-13T13:52:51.569Z,16.20
2022-10-13T13:55:18.762Z,16.20
2022-10-13T13:57:45.524Z,16.20
2022-10-13T14:00:14.489Z,16.20
2022-10-13T14:02:42.877Z,16.20
2022-10-13T14:05:12.746Z,16.20
2022-10-13T14:07:40.539Z,16.30
2022-10-13T14:10:09.308Z,16.20
2022-10-13T14:12:36.604Z,16.20
2022-10-13T14:15:03.792Z,16.20
2022-10-13T14:17:30.578Z,16.20
2022-10-13T14:19:57.356Z,16.20
2022-10-13T14:22:24.429Z,16.20
2022-10-13T14:24:51.448Z,16.20
2022-10-13T14:27:18.184Z,16.20
2022-10-13T14:29:44.958Z,16.20
2022-10-13T14:32:12.046Z,16.20
2022-10-13T14:34:38.935Z,16.20
2022-10-13T14:37:05.714Z,16.20
2022-10-13T14:39:32.467Z,16.30
2022-10-13T14:41:59.199Z,16.20
2022-10-13T14:44:25.970Z,16.20
2022-10-13T14:46:52.769Z,16.30
2022-10-13T14:49:19.473Z,16.30
2022-10-13T14:51:46.273Z,16.30
2022-10-13T14:54:13.279Z,16.30
2022-10-13T14:56:40.509Z,16.30
2022-10-13T14:59:07.897Z,16.20
2022-10-13T15:01:34.807Z,16.20
2022-10-13T15:04:02.596Z,16.30
2022-10-13T15:06:29.588Z,16.30
2022-10-13T15:08:57.104Z,16.30
2022-10-13T15:11:25.209Z,16.30
2022-10-13T15:13:52.367Z,16.30
2022-10-13T15:16:29.191Z,16.30
2022-10-13T15:18:57.202Z,16.30
2022-10-13T15:21:24.525Z,16.30
2022-10-13T15:23:51.513Z,16.30
2022-10-13T15:26:19.899Z,16.30
2022-10-13T15:28:52.759Z,16.30
2022-10-13T15:31:21.368Z,16.30
2022-10-13T15:33:51.803Z,16.30
2022-10-13T15:36:19.657Z,16.30
2022-10-13T15:38:46.621Z,16.30
2022-10-13T15:41:13.380Z,16.30
2022-10-13T15:43:40.214Z,16.30
2022-10-13T15:46:11.662Z,16.30
2022-10-13T15:48:39.370Z,16.30
2022-10-13T15:51:14.204Z,16.30
2022-10-13T15:53:40.986Z,16.30
2022-10-13T15:56:08.473Z,16.30
2022-10-13T15:58:38.786Z,16.30
2022-10-13T16:01:10.606Z,16.30
2022-10-13T16:03:37.831Z,16.30
2022-10-13T16:06:06.780Z,16.30
2022-10-13T16:08:40.630Z,16.30
2022-10-13T16:11:09.513Z,16.30
2022-10-13T16:13:36.368Z,16.30
2022-10-13T16:16:05.966Z,16.30
2022-10-13T16:18:37.371Z,16.30
2022-10-13T16:21:18.474Z,16.30
2022-10-13T16:23:46.939Z,16.30
2022-10-13T16:26:14.715Z,16.30
2022-10-13T16:28:41.578Z,16.30
2022-10-13T16:31:13.327Z,16.30
2022-10-13T16:33:41.598Z,16.30
2022-10-13T16:36:10.075Z,16.30
2022-10-13T16:38:37.097Z,16.30
2022-10-13T16:41:09.904Z,16.30
2022-10-13T16:43:36.644Z,16.30
2022-10-13T16:46:05.368Z,16.30
2022-10-13T16:48:33.317Z,16.30
2022-10-13T16:51:04.395Z,16.30
2022-10-13T16:53:31.187Z,16.30
2022-10-13T16:55:57.910Z,16.30
2022-10-13T16:58:24.843Z,16.30
2022-10-13T17:00:51.576Z,16.30
2022-10-13T17:03:18.395Z,16.30
2022-10-13T17:05:45.107Z,16.30
2022-10-13T17:08:11.833Z,16.30
2022-10-13T17:10:38.568Z,16.30
2022-10-13T17:13:05.330Z,16.30
2022-10-13T17:15:32.052Z,16.30
2022-10-13T17:17:58.831Z,16.30
2022-10-13T17:20:25.541Z,16.30
2022-10-13T17:22:52.288Z,16.30
2022-10-13T17:25:18.995Z,16.30
2022-10-13T17:27:45.806Z,16.30
2022-10-13T17:30:12.588Z,16.30
2022-10-13T17:32:42.198Z,16.30
2022-10-13T17:35:14.343Z,16.30
2022-10-13T17:37:41.063Z,16.30
2022-10-13T17:40:08.221Z,16.30
2022-10-13T17:42:34.978Z,16.30
2022-10-13T17:45:01.829Z,16.30
2022-10-13T17:47:31.135Z,16.30
2022-10-13T17:50:00.111Z,16.30
2022-10-13T17:52:26.956Z,16.30
2022-10-13T17:54:53.733Z,16.30
2022-10-13T17:57:20.697Z,16.30
2022-10-13T17:59:47.729Z,16.30
2022-10-13T18:02:14.545Z,16.30
2022-10-13T18:04:41.704Z,16.30
2022-10-13T18:07:08.450Z,16.30
2022-10-13T18:09:35.215Z,16.30
2022-10-13T18:12:01.945Z,16.30
2022-10-13T18:14:29.134Z,16.30
2022-10-13T18:16:56.400Z,16.30
2022-10-13T18:19:25.575Z,16.30
2022-10-13T18:21:53.063Z,16.30
2022-10-13T18:24:20.252Z,16.30
2022-10-13T18:26:47.489Z,16.30
2022-10-13T18:29:14.838Z,16.30
2022-10-13T18:31:42.972Z,16.30
2022-10-13T18:34:14.025Z,16.30
2022-10-13T18:36:47.296Z,16.30
2022-10-13T18:39:17.698Z,16.30
2022-10-13T18:41:45.136Z,16.30
2022-10-13T18:44:12.610Z,16.30
2022-10-13T18:46:40.197Z,16.30
2022-10-13T18:49:13.514Z,16.30
2022-10-13T18:51:41.176Z,16.30
2022-10-13T18:54:08.924Z,16.30
2022-10-13T18:56:37.038Z,16.30
2022-10-13T18:59:04.615Z,16.30
2022-10-13T19:01:36.494Z,16.30
2022-10-13T19:04:04.251Z,16.30
2022-10-13T19:06:32.459Z,16.30
2022-10-13T19:09:03.721Z,16.30
2022-10-13T19:11:31.895Z,16.30
2022-10-13T19:13:59.876Z,16.30
2022-10-13T19:16:29.245Z,16.30
2022-10-13T19:18:56.379Z,16.40
2022-10-13T19:21:23.683Z,16.30
2022-10-13T19:23:50.462Z,16.30
2022-10-13T19:26:26.730Z,16.30
2022-10-13T19:28:55.515Z,16.30
2022-10-13T19:31:26.318Z,16.30
2022-10-13T19:33:54.112Z,16.30
2022-10-13T19:36:25.227Z,16.30
2022-10-13T19:38:52.180Z,16.30
2022-10-13T19:41:21.829Z,16.30
2022-10-13T19:43:49.024Z,16.30
2022-10-13T19:46:19.152Z,16.30
2022-10-13T19:48:46.015Z,16.40
2022-10-13T19:51:12.934Z,16.30
2022-10-13T19:53:40.134Z,16.30
2022-10-13T19:56:07.817Z,16.30
2022-10-13T19:58:35.476Z,16.40
2022-10-13T20:01:06.853Z,16.30
2022-10-13T20:03:33.750Z,16.40
2022-10-13T20:06:04.265Z,16.30
2022-10-13T20:08:30.992Z,16.30
2022-10-13T20:10:57.849Z,16.40
2022-10-13T20:13:24.619Z,16.40
2022-10-13T20:15:51.373Z,16.40
2022-10-13T20:18:18.231Z,16.30
2022-10-13T20:20:44.964Z,16.40
2022-10-13T20:23:11.877Z,16.30
2022-10-13T20:25:40.849Z,16.40
2022-10-13T20:28:07.627Z,16.40
2022-10-13T20:30:34.384Z,16.40
2022-10-13T20:33:01.148Z,16.30
2022-10-13T20:35:27.902Z,16.40
2022-10-13T20:37:54.646Z,16.40
2022-10-13T20:40:21.532Z,16.40
2022-10-13T20:42:52.381Z,16.40
2022-10-13T20:45:19.224Z,16.40
2022-10-13T20:47:46.926Z,16.40
2022-10-13T20:50:13.960Z,16.40
2022-10-13T20:52:40.729Z,16.40
2022-10-13T20:55:07.771Z,16.40
2022-10-13T20:57:34.972Z,16.30
2022-10-13T21:00:01.875Z,16.40
2022-10-13T21:02:28.584Z,16.40
2022-10-13T21:04:55.339Z,16.40
2022-10-13T21:07:22.945Z,16.40
2022-10-13T21:09:53.681Z,16.40
2022-10-13T21:12:21.525Z,16.40
2022-10-13T21:14:48.868Z,16.40
2022-10-13T21:17:15.573Z,16.40
2022-10-13T21:19:42.310Z,16.40
2022-10-13T21:22:09.028Z,16.40
2022-10-13T21:24:35.790Z,16.40
2022-10-13T21:27:02.515Z,16.40
2022-10-13T21:29:30.385Z,16.40
2022-10-13T21:31:57.084Z,16.40
2022-10-13T21:34:23.868Z,16.40
2022-10-13T21:36:50.616Z,16.40
2022-10-13T21:39:17.424Z,16.40
2022-10-13T21:41:44.241Z,16.40
2022-10-13T21:44:14.288Z,16.40
2022-10-13T21:46:43.627Z,16.40
2022-10-13T21:49:10.360Z,16.40
2022-10-13T21:51:39.087Z,16.40
2022-10-13T21:54:12.046Z,16.40
2022-10-13T21:56:42.033Z,16.40
2022-10-13T21:59:11.201Z,16.40
2022-10-13T22:01:37.995Z,16.40
2022-10-13T22:04:06.256Z,16.40
2022-10-13T22:06:33.614Z,16.40
2022-10-13T22:09:02.206Z,16.40
2022-10-13T22:11:31.394Z,16.40
2022-10-13T22:13:58.579Z,16.40
2022-10-13T22:16:32.083Z,16.40
2022-10-13T22:18:59.217Z,16.40
2022-10-13T22:21:35.315Z,16.40
2022-10-13T22:24:04.339Z,16.40
2022-10-13T22:26:34.201Z,16.40
2022-10-13T22:29:02.584Z,16.40
2022-10-13T22:31:30.631Z,16.40
2022-10-13T22:33:57.965Z,16.40
2022-10-13T22:36:26.150Z,16.40
2022-10-13T22:38:55.770Z,16.40
2022-10-13T22:41:23.016Z,16.40
2022-10-13T22:43:51.662Z,16.40
2022-10-13T22:46:22.533Z,16.40
2022-10-13T22:48:49.446Z,16.40
2022-10-13T22:51:20.326Z,16.40
2022-10-13T22:53:47.488Z,16.40
2022-10-13T22:56:20.710Z,16.40
2022-10-13T22:59:06.103Z,16.40
2022-10-13T23:01:33.333Z,16.40
2022-10-13T23:04:00.632Z,16.40
2022-10-13T23:06:29.783Z,16.40
2022-10-13T23:08:59.697Z,16.40
2022-10-13T23:11:26.733Z,16.40
2022-10-13T23:13:53.621Z,16.40
2022-10-13T23:16:23.207Z,16.40
2022-10-13T23:18:49.989Z,16.40
2022-10-13T23:21:19.074Z,16.40
2022-10-13T23:23:46.590Z,16.40
2022-10-13T23:26:16.627Z,16.40
2022-10-13T23:28:43.950Z,16.40
2022-10-13T23:31:13.675Z,16.40
2022-10-13T23:33:40.700Z,16.40
2022-10-13T23:36:08.325Z,16.40
2022-10-13T23:38:35.203Z,16.40
2022-10-13T23:41:04.013Z,16.40
2022-10-13T23:43:30.830Z,16.40
2022-10-13T23:45:57.709Z,16.40
2022-10-13T23:48:24.490Z,16.40
2022-10-13T23:50:51.274Z,16.40
2022-10-13T23:53:18.613Z,16.40
2022-10-13T23:55:45.357Z,16.40
2022-10-13T23:58:13.580Z,16.40
